Terminal Aerodrome Forecast
Issued by NWS

Home | Current Version | Previous Version | Text Only | Print | Product List | Glossary On
Versions: 1 2 3 4 5 6 7 8 9 10
000
FTAK31 PAJN 272300
TAFAKT
TAF
PAKT 272320Z 2800/2824 32011KT P6SM SKC
      TEMPO 2800/2804 32011G18KT
     FM280400 32005KT P6SM SKC
     FM281000 32004KT 2SM BR SKC
     FM281800 31005KT 4SM BR SKC
     FM282100 31006KT P6SM SCT070
      AMD LTD TO CLD VIS AND WIND 2806/2815=

USA.gov is the U.S. government's official web portal to all federal, state and local government web resources and services.